Etusivu
METAR-TAF:

METAR-TAF

Lentoasemat :

East London, Etelä-Afrikka

Leveyspiiri: 33-02S, Pituuspiiri: 027-50E, korkeus merenpinnasta: 125 m

Tämänhetkinen sää

Tämä raportti tehtiin 43 minuuttia sitten, kello 09.00 UTC
Tuuli 13 kn lännestä
Lämpötila 20°C
Kosteus 78%
Ilmanpaine 1017 hPa
Näkyvyys 10 km tai enemmän
Pilvistä 2100 ft:n korkeudessa

METAR: FAEL 260900Z 28013KT 9999 OVC021 20/16 Q1017

Aika: 11:43 (09:43 UTC)

Sääennuste

Tämä raportti tehtiin 3 tuntia ja 43 minuuttia sitten, kello 06.00 UTC
Ennuste voimassa 26. päivästä klo 07 UTC - 26. päivään klo 18 UTC
Tuuli 7 kn luoteesta
Näkyvyys 10 km tai enemmän
Hajonneita pilviä 3400 ft:n korkeudessa
Tulossa
26. päivästä klo 07 UTC - 26. päivään klo 09 UTC
Tuuli 13 kn lounaasta

TAF: FAEL 260600Z 2607/2618 31007KT 9999 BKN034 TX25/2612Z TN15/2618Z BECMG 2607/2609 23013KT

Säähavainnot ja -ennusteet yli 4000 lentoasemalta (METAR- ja TAF-raportit).

Käytössä olevat sääasemat on merkitty karttaan keltaisilla ja punaisilla pisteillä.

Aseta hiiri pisteen päälle nähdäksesi sääaseman nimen.

Klikkaa sitten nähdäksesi säähavainnot ja -ennusteet.

Kartan vaihtaminen: klikkaa mustalla rastilla varustettuja vihreitä pisteitä, niin voit zoomata sisään; viivalla varustettua vihreää pistettä, niin voit zoomata ulos tai vihreitä nuolia, niin pääset viereisille kartoille.


METAR-TAF: